sensor_id;sensor_type;location;lat;lon;timestamp;P1;durP1;ratioP1;P2;durP2;ratioP2
73672;SDS011;61972;19.480;-99.240;2023-07-13T00:01:51;7.40;;;2.05;;
73672;SDS011;61972;19.480;-99.240;2023-07-13T00:04:18;5.23;;;1.80;;
73672;SDS011;61972;19.480;-99.240;2023-07-13T00:06:45;4.95;;;2.00;;
73672;SDS011;61972;19.480;-99.240;2023-07-13T00:09:13;6.38;;;2.10;;
73672;SDS011;61972;19.480;-99.240;2023-07-13T00:11:40;2.80;;;1.92;;
73672;SDS011;61972;19.480;-99.240;2023-07-13T00:14:07;3.25;;;1.83;;
73672;SDS011;61972;19.480;-99.240;2023-07-13T00:16:35;5.07;;;1.70;;
73672;SDS011;61972;19.480;-99.240;2023-07-13T00:19:02;5.70;;;1.98;;
73672;SDS011;61972;19.480;-99.240;2023-07-13T00:21:28;10.23;;;2.08;;
73672;SDS011;61972;19.480;-99.240;2023-07-13T00:23:54;3.55;;;1.73;;
73672;SDS011;61972;19.480;-99.240;2023-07-13T00:26:20;3.20;;;1.42;;
73672;SDS011;61972;19.480;-99.240;2023-07-13T00:28:47;4.13;;;1.70;;
73672;SDS011;61972;19.480;-99.240;2023-07-13T00:31:13;3.65;;;1.70;;
73672;SDS011;61972;19.480;-99.240;2023-07-13T00:33:42;5.10;;;1.55;;
73672;SDS011;61972;19.480;-99.240;2023-07-13T00:36:09;5.15;;;1.95;;
73672;SDS011;61972;19.480;-99.240;2023-07-13T00:38:36;3.38;;;1.70;;
73672;SDS011;61972;19.480;-99.240;2023-07-13T00:41:03;4.27;;;1.90;;
73672;SDS011;61972;19.480;-99.240;2023-07-13T00:43:30;5.53;;;2.10;;
73672;SDS011;61972;19.480;-99.240;2023-07-13T00:46:11;3.22;;;1.70;;
73672;SDS011;61972;19.480;-99.240;2023-07-13T00:48:43;4.40;;;1.90;;
73672;SDS011;61972;19.480;-99.240;2023-07-13T00:51:12;6.55;;;2.00;;
73672;SDS011;61972;19.480;-99.240;2023-07-13T00:53:41;10.07;;;1.80;;
73672;SDS011;61972;19.480;-99.240;2023-07-13T00:56:08;5.03;;;1.77;;
73672;SDS011;61972;19.480;-99.240;2023-07-13T00:58:34;7.53;;;1.85;;
73672;SDS011;61972;19.480;-99.240;2023-07-13T01:01:01;5.88;;;1.80;;
73672;SDS011;61972;19.480;-99.240;2023-07-13T01:03:27;9.52;;;1.90;;
73672;SDS011;61972;19.480;-99.240;2023-07-13T01:05:54;4.20;;;1.63;;
73672;SDS011;61972;19.480;-99.240;2023-07-13T01:08:21;8.00;;;1.70;;
73672;SDS011;61972;19.480;-99.240;2023-07-13T01:10:54;7.88;;;2.22;;
73672;SDS011;61972;19.480;-99.240;2023-07-13T01:13:21;7.82;;;2.00;;
73672;SDS011;61972;19.480;-99.240;2023-07-13T01:15:49;5.85;;;2.13;;
73672;SDS011;61972;19.480;-99.240;2023-07-13T01:18:20;6.07;;;2.40;;
73672;SDS011;61972;19.480;-99.240;2023-07-13T01:20:56;4.78;;;2.40;;
73672;SDS011;61972;19.480;-99.240;2023-07-13T01:23:27;5.60;;;2.20;;
73672;SDS011;61972;19.480;-99.240;2023-07-13T01:25:55;6.75;;;2.40;;
73672;SDS011;61972;19.480;-99.240;2023-07-13T01:28:22;4.32;;;2.60;;
73672;SDS011;61972;19.480;-99.240;2023-07-13T01:30:52;5.90;;;2.40;;
73672;SDS011;61972;19.480;-99.240;2023-07-13T01:33:19;4.90;;;2.60;;
73672;SDS011;61972;19.480;-99.240;2023-07-13T01:35:46;7.10;;;2.92;;
73672;SDS011;61972;19.480;-99.240;2023-07-13T01:38:14;6.15;;;3.00;;
73672;SDS011;61972;19.480;-99.240;2023-07-13T01:40:41;7.03;;;3.10;;
73672;SDS011;61972;19.480;-99.240;2023-07-13T01:43:08;8.80;;;3.20;;
73672;SDS011;61972;19.480;-99.240;2023-07-13T01:45:35;8.77;;;3.50;;
73672;SDS011;61972;19.480;-99.240;2023-07-13T01:48:01;6.72;;;3.42;;
73672;SDS011;61972;19.480;-99.240;2023-07-13T01:50:27;8.13;;;3.35;;
73672;SDS011;61972;19.480;-99.240;2023-07-13T01:52:53;5.65;;;3.28;;
73672;SDS011;61972;19.480;-99.240;2023-07-13T01:55:19;9.57;;;3.20;;
73672;SDS011;61972;19.480;-99.240;2023-07-13T01:57:46;7.70;;;3.28;;
73672;SDS011;61972;19.480;-99.240;2023-07-13T02:00:12;6.35;;;3.40;;
73672;SDS011;61972;19.480;-99.240;2023-07-13T02:02:39;6.03;;;3.40;;
73672;SDS011;61972;19.480;-99.240;2023-07-13T02:05:05;6.78;;;3.53;;
73672;SDS011;61972;19.480;-99.240;2023-07-13T02:07:32;8.37;;;3.30;;
73672;SDS011;61972;19.480;-99.240;2023-07-13T02:09:58;7.68;;;3.63;;
73672;SDS011;61972;19.480;-99.240;2023-07-13T02:12:24;6.13;;;3.30;;
73672;SDS011;61972;19.480;-99.240;2023-07-13T02:14:50;5.82;;;3.17;;
73672;SDS011;61972;19.480;-99.240;2023-07-13T02:17:16;7.88;;;3.28;;
73672;SDS011;61972;19.480;-99.240;2023-07-13T02:19:42;7.00;;;2.93;;
73672;SDS011;61972;19.480;-99.240;2023-07-13T02:22:08;9.00;;;3.20;;
73672;SDS011;61972;19.480;-99.240;2023-07-13T02:24:35;7.50;;;3.53;;
73672;SDS011;61972;19.480;-99.240;2023-07-13T02:27:01;5.80;;;2.92;;
73672;SDS011;61972;19.480;-99.240;2023-07-13T02:29:27;6.45;;;3.13;;
73672;SDS011;61972;19.480;-99.240;2023-07-13T02:31:53;5.57;;;2.90;;
73672;SDS011;61972;19.480;-99.240;2023-07-13T02:34:19;5.90;;;3.05;;
73672;SDS011;61972;19.480;-99.240;2023-07-13T02:36:45;5.85;;;3.25;;
73672;SDS011;61972;19.480;-99.240;2023-07-13T02:39:12;5.38;;;2.80;;
73672;SDS011;61972;19.480;-99.240;2023-07-13T02:41:39;10.00;;;3.20;;
73672;SDS011;61972;19.480;-99.240;2023-07-13T02:44:05;7.17;;;3.10;;
73672;SDS011;61972;19.480;-99.240;2023-07-13T02:46:33;5.32;;;2.80;;
73672;SDS011;61972;19.480;-99.240;2023-07-13T02:49:00;7.05;;;3.03;;
73672;SDS011;61972;19.480;-99.240;2023-07-13T02:51:27;6.22;;;2.80;;
73672;SDS011;61972;19.480;-99.240;2023-07-13T02:53:53;6.70;;;3.03;;
73672;SDS011;61972;19.480;-99.240;2023-07-13T02:56:22;5.60;;;2.70;;
73672;SDS011;61972;19.480;-99.240;2023-07-13T02:58:49;6.45;;;3.10;;
73672;SDS011;61972;19.480;-99.240;2023-07-13T03:01:16;9.65;;;2.95;;
73672;SDS011;61972;19.480;-99.240;2023-07-13T03:03:47;5.35;;;2.92;;
73672;SDS011;61972;19.480;-99.240;2023-07-13T03:06:14;5.90;;;3.13;;
73672;SDS011;61972;19.480;-99.240;2023-07-13T03:08:42;4.10;;;2.70;;
73672;SDS011;61972;19.480;-99.240;2023-07-13T03:11:11;6.05;;;3.20;;
73672;SDS011;61972;19.480;-99.240;2023-07-13T03:13:39;5.68;;;2.78;;
73672;SDS011;61972;19.480;-99.240;2023-07-13T03:16:07;5.25;;;2.78;;
73672;SDS011;61972;19.480;-99.240;2023-07-13T03:18:34;6.45;;;2.75;;
73672;SDS011;61972;19.480;-99.240;2023-07-13T03:21:01;5.20;;;2.87;;
73672;SDS011;61972;19.480;-99.240;2023-07-13T03:23:27;6.72;;;3.28;;
73672;SDS011;61972;19.480;-99.240;2023-07-13T03:26:06;6.40;;;3.33;;
73672;SDS011;61972;19.480;-99.240;2023-07-13T03:28:34;7.10;;;2.83;;
73672;SDS011;61972;19.480;-99.240;2023-07-13T03:31:02;6.38;;;2.67;;
73672;SDS011;61972;19.480;-99.240;2023-07-13T03:33:31;4.70;;;2.50;;
73672;SDS011;61972;19.480;-99.240;2023-07-13T03:35:58;6.78;;;2.55;;
73672;SDS011;61972;19.480;-99.240;2023-07-13T03:38:25;8.82;;;2.47;;
73672;SDS011;61972;19.480;-99.240;2023-07-13T03:40:52;9.45;;;2.83;;
73672;SDS011;61972;19.480;-99.240;2023-07-13T03:43:18;6.57;;;2.70;;
73672;SDS011;61972;19.480;-99.240;2023-07-13T03:45:45;7.60;;;2.90;;
73672;SDS011;61972;19.480;-99.240;2023-07-13T03:48:13;7.88;;;3.03;;
73672;SDS011;61972;19.480;-99.240;2023-07-13T03:50:40;5.63;;;2.80;;
73672;SDS011;61972;19.480;-99.240;2023-07-13T03:53:06;9.95;;;3.42;;
73672;SDS011;61972;19.480;-99.240;2023-07-13T03:55:33;10.27;;;3.63;;
73672;SDS011;61972;19.480;-99.240;2023-07-13T03:58:00;10.13;;;4.10;;
73672;SDS011;61972;19.480;-99.240;2023-07-13T04:00:46;12.40;;;4.88;;
73672;SDS011;61972;19.480;-99.240;2023-07-13T04:03:12;13.63;;;5.60;;
73672;SDS011;61972;19.480;-99.240;2023-07-13T04:05:38;15.50;;;5.72;;
73672;SDS011;61972;19.480;-99.240;2023-07-13T04:08:06;16.60;;;6.18;;
73672;SDS011;61972;19.480;-99.240;2023-07-13T04:10:32;15.30;;;7.27;;
73672;SDS011;61972;19.480;-99.240;2023-07-13T04:12:58;16.02;;;7.47;;
73672;SDS011;61972;19.480;-99.240;2023-07-13T04:15:24;16.63;;;6.75;;
73672;SDS011;61972;19.480;-99.240;2023-07-13T04:17:50;11.73;;;6.25;;
73672;SDS011;61972;19.480;-99.240;2023-07-13T04:20:16;12.50;;;5.38;;
73672;SDS011;61972;19.480;-99.240;2023-07-13T04:22:45;12.93;;;5.37;;
73672;SDS011;61972;19.480;-99.240;2023-07-13T04:25:11;10.93;;;4.70;;
73672;SDS011;61972;19.480;-99.240;2023-07-13T04:27:37;11.38;;;4.63;;
73672;SDS011;61972;19.480;-99.240;2023-07-13T04:30:05;10.90;;;4.18;;
73672;SDS011;61972;19.480;-99.240;2023-07-13T04:32:32;8.00;;;4.03;;
73672;SDS011;61972;19.480;-99.240;2023-07-13T04:34:58;8.80;;;3.90;;
73672;SDS011;61972;19.480;-99.240;2023-07-13T04:37:27;7.90;;;3.90;;
73672;SDS011;61972;19.480;-99.240;2023-07-13T04:39:54;7.43;;;3.40;;
73672;SDS011;61972;19.480;-99.240;2023-07-13T04:42:21;11.23;;;3.80;;
73672;SDS011;61972;19.480;-99.240;2023-07-13T04:44:50;8.45;;;3.80;;
73672;SDS011;61972;19.480;-99.240;2023-07-13T04:47:20;8.13;;;3.70;;
73672;SDS011;61972;19.480;-99.240;2023-07-13T04:49:47;8.18;;;4.20;;
73672;SDS011;61972;19.480;-99.240;2023-07-13T04:52:13;7.63;;;3.85;;
73672;SDS011;61972;19.480;-99.240;2023-07-13T04:54:39;10.18;;;4.50;;
73672;SDS011;61972;19.480;-99.240;2023-07-13T04:57:05;11.85;;;4.57;;
73672;SDS011;61972;19.480;-99.240;2023-07-13T04:59:32;13.70;;;5.00;;
73672;SDS011;61972;19.480;-99.240;2023-07-13T05:01:58;11.48;;;4.28;;
73672;SDS011;61972;19.480;-99.240;2023-07-13T05:04:24;12.15;;;4.47;;
73672;SDS011;61972;19.480;-99.240;2023-07-13T05:06:51;12.05;;;4.15;;
73672;SDS011;61972;19.480;-99.240;2023-07-13T05:09:17;9.75;;;4.00;;
73672;SDS011;61972;19.480;-99.240;2023-07-13T05:11:43;8.37;;;3.93;;
73672;SDS011;61972;19.480;-99.240;2023-07-13T05:14:09;8.75;;;3.92;;
73672;SDS011;61972;19.480;-99.240;2023-07-13T05:16:35;7.38;;;4.10;;
73672;SDS011;61972;19.480;-99.240;2023-07-13T05:19:02;11.63;;;3.75;;
73672;SDS011;61972;19.480;-99.240;2023-07-13T05:21:28;7.70;;;3.55;;
73672;SDS011;61972;19.480;-99.240;2023-07-13T05:23:54;9.07;;;3.57;;
73672;SDS011;61972;19.480;-99.240;2023-07-13T05:26:21;7.70;;;3.55;;
73672;SDS011;61972;19.480;-99.240;2023-07-13T05:28:47;8.48;;;3.65;;
73672;SDS011;61972;19.480;-99.240;2023-07-13T05:31:13;6.75;;;3.17;;
73672;SDS011;61972;19.480;-99.240;2023-07-13T05:33:39;10.38;;;3.38;;
73672;SDS011;61972;19.480;-99.240;2023-07-13T05:36:05;6.73;;;3.30;;
73672;SDS011;61972;19.480;-99.240;2023-07-13T05:38:32;6.35;;;2.75;;
73672;SDS011;61972;19.480;-99.240;2023-07-13T05:40:58;8.32;;;3.50;;
73672;SDS011;61972;19.480;-99.240;2023-07-13T05:43:25;6.60;;;3.10;;
73672;SDS011;61972;19.480;-99.240;2023-07-13T05:45:55;5.93;;;3.15;;
73672;SDS011;61972;19.480;-99.240;2023-07-13T05:48:22;7.90;;;2.90;;
73672;SDS011;61972;19.480;-99.240;2023-07-13T05:50:48;5.82;;;2.80;;
73672;SDS011;61972;19.480;-99.240;2023-07-13T05:53:14;4.90;;;2.70;;
73672;SDS011;61972;19.480;-99.240;2023-07-13T05:55:44;6.80;;;2.67;;
73672;SDS011;61972;19.480;-99.240;2023-07-13T05:58:13;5.50;;;2.92;;
73672;SDS011;61972;19.480;-99.240;2023-07-13T06:00:39;6.60;;;3.03;;
73672;SDS011;61972;19.480;-99.240;2023-07-13T06:03:06;9.73;;;2.90;;
73672;SDS011;61972;19.480;-99.240;2023-07-13T06:05:32;7.07;;;2.70;;
73672;SDS011;61972;19.480;-99.240;2023-07-13T06:08:00;10.93;;;2.88;;
73672;SDS011;61972;19.480;-99.240;2023-07-13T06:10:26;5.85;;;2.90;;
73672;SDS011;61972;19.480;-99.240;2023-07-13T06:12:52;4.43;;;2.90;;
73672;SDS011;61972;19.480;-99.240;2023-07-13T06:15:18;10.25;;;3.25;;
73672;SDS011;61972;19.480;-99.240;2023-07-13T06:17:44;10.52;;;2.95;;
73672;SDS011;61972;19.480;-99.240;2023-07-13T06:20:10;5.95;;;2.90;;
73672;SDS011;61972;19.480;-99.240;2023-07-13T06:22:37;4.53;;;2.70;;
73672;SDS011;61972;19.480;-99.240;2023-07-13T06:25:03;8.10;;;2.80;;
73672;SDS011;61972;19.480;-99.240;2023-07-13T06:27:30;7.60;;;2.80;;
73672;SDS011;61972;19.480;-99.240;2023-07-13T06:29:56;9.57;;;2.80;;
73672;SDS011;61972;19.480;-99.240;2023-07-13T06:32:22;5.72;;;2.58;;
73672;SDS011;61972;19.480;-99.240;2023-07-13T06:34:48;7.18;;;3.00;;
73672;SDS011;61972;19.480;-99.240;2023-07-13T06:37:14;5.30;;;2.70;;
73672;SDS011;61972;19.480;-99.240;2023-07-13T06:39:40;6.55;;;2.90;;
73672;SDS011;61972;19.480;-99.240;2023-07-13T06:42:06;7.68;;;2.90;;
73672;SDS011;61972;19.480;-99.240;2023-07-13T06:44:32;9.00;;;2.83;;
73672;SDS011;61972;19.480;-99.240;2023-07-13T06:46:58;6.55;;;2.70;;
73672;SDS011;61972;19.480;-99.240;2023-07-13T06:49:25;6.93;;;2.97;;
73672;SDS011;61972;19.480;-99.240;2023-07-13T06:51:51;5.63;;;2.75;;
73672;SDS011;61972;19.480;-99.240;2023-07-13T06:54:17;6.22;;;2.40;;
73672;SDS011;61972;19.480;-99.240;2023-07-13T06:56:43;6.05;;;2.65;;
73672;SDS011;61972;19.480;-99.240;2023-07-13T06:59:09;11.13;;;2.80;;
73672;SDS011;61972;19.480;-99.240;2023-07-13T07:01:35;9.43;;;2.77;;
73672;SDS011;61972;19.480;-99.240;2023-07-13T07:04:02;5.10;;;2.60;;
73672;SDS011;61972;19.480;-99.240;2023-07-13T07:06:29;7.93;;;2.65;;
73672;SDS011;61972;19.480;-99.240;2023-07-13T07:08:55;5.95;;;2.67;;
73672;SDS011;61972;19.480;-99.240;2023-07-13T07:11:22;7.35;;;2.50;;
73672;SDS011;61972;19.480;-99.240;2023-07-13T07:13:50;6.10;;;2.77;;
73672;SDS011;61972;19.480;-99.240;2023-07-13T07:16:18;6.88;;;2.38;;
73672;SDS011;61972;19.480;-99.240;2023-07-13T07:18:45;4.53;;;2.55;;
73672;SDS011;61972;19.480;-99.240;2023-07-13T07:21:12;5.72;;;2.85;;
73672;SDS011;61972;19.480;-99.240;2023-07-13T07:23:39;4.47;;;2.40;;
73672;SDS011;61972;19.480;-99.240;2023-07-13T07:26:05;4.73;;;2.47;;
73672;SDS011;61972;19.480;-99.240;2023-07-13T07:28:34;4.63;;;2.50;;
73672;SDS011;61972;19.480;-99.240;2023-07-13T07:31:00;5.05;;;3.00;;
73672;SDS011;61972;19.480;-99.240;2023-07-13T07:33:26;4.00;;;2.38;;
73672;SDS011;61972;19.480;-99.240;2023-07-13T07:35:52;5.63;;;3.00;;
73672;SDS011;61972;19.480;-99.240;2023-07-13T07:38:18;5.97;;;2.90;;
73672;SDS011;61972;19.480;-99.240;2023-07-13T07:40:44;5.95;;;2.40;;
73672;SDS011;61972;19.480;-99.240;2023-07-13T07:43:11;4.65;;;2.30;;
73672;SDS011;61972;19.480;-99.240;2023-07-13T07:45:38;4.05;;;2.40;;
73672;SDS011;61972;19.480;-99.240;2023-07-13T07:48:05;5.57;;;2.40;;
73672;SDS011;61972;19.480;-99.240;2023-07-13T07:50:32;7.13;;;2.40;;
73672;SDS011;61972;19.480;-99.240;2023-07-13T07:52:58;4.90;;;2.40;;
73672;SDS011;61972;19.480;-99.240;2023-07-13T07:55:29;5.05;;;2.60;;
73672;SDS011;61972;19.480;-99.240;2023-07-13T07:57:58;4.45;;;2.33;;
73672;SDS011;61972;19.480;-99.240;2023-07-13T08:00:24;6.25;;;2.33;;
73672;SDS011;61972;19.480;-99.240;2023-07-13T08:02:50;5.23;;;2.37;;
73672;SDS011;61972;19.480;-99.240;2023-07-13T08:05:16;4.85;;;2.10;;
73672;SDS011;61972;19.480;-99.240;2023-07-13T08:07:42;5.72;;;2.67;;
73672;SDS011;61972;19.480;-99.240;2023-07-13T08:10:08;4.03;;;2.40;;
73672;SDS011;61972;19.480;-99.240;2023-07-13T08:12:35;5.30;;;2.55;;
73672;SDS011;61972;19.480;-99.240;2023-07-13T08:15:03;4.30;;;2.40;;
73672;SDS011;61972;19.480;-99.240;2023-07-13T08:17:30;7.85;;;2.97;;
73672;SDS011;61972;19.480;-99.240;2023-07-13T08:19:56;7.10;;;2.58;;
73672;SDS011;61972;19.480;-99.240;2023-07-13T08:22:23;8.38;;;2.50;;
73672;SDS011;61972;19.480;-99.240;2023-07-13T08:24:49;4.78;;;2.42;;
73672;SDS011;61972;19.480;-99.240;2023-07-13T08:27:21;4.50;;;2.20;;
73672;SDS011;61972;19.480;-99.240;2023-07-13T08:29:51;4.13;;;2.25;;
73672;SDS011;61972;19.480;-99.240;2023-07-13T08:32:18;7.75;;;2.38;;
73672;SDS011;61972;19.480;-99.240;2023-07-13T08:34:46;5.13;;;2.30;;
73672;SDS011;61972;19.480;-99.240;2023-07-13T08:37:12;4.50;;;2.30;;
73672;SDS011;61972;19.480;-99.240;2023-07-13T08:39:38;4.20;;;2.23;;
73672;SDS011;61972;19.480;-99.240;2023-07-13T08:42:05;4.07;;;2.03;;
73672;SDS011;61972;19.480;-99.240;2023-07-13T08:47:37;4.97;;;2.50;;
73672;SDS011;61972;19.480;-99.240;2023-07-13T08:50:08;4.35;;;2.30;;
73672;SDS011;61972;19.480;-99.240;2023-07-13T08:52:39;4.73;;;2.10;;
73672;SDS011;61972;19.480;-99.240;2023-07-13T08:55:17;8.07;;;2.33;;
73672;SDS011;61972;19.480;-99.240;2023-07-13T08:57:48;4.65;;;2.10;;
73672;SDS011;61972;19.480;-99.240;2023-07-13T09:00:20;4.10;;;2.13;;
73672;SDS011;61972;19.480;-99.240;2023-07-13T09:02:50;5.93;;;2.20;;
73672;SDS011;61972;19.480;-99.240;2023-07-13T09:10:51;9.88;;;2.53;;
73672;SDS011;61972;19.480;-99.240;2023-07-13T09:15:45;7.80;;;2.40;;
73672;SDS011;61972;19.480;-99.240;2023-07-13T09:20:54;6.93;;;2.78;;
73672;SDS011;61972;19.480;-99.240;2023-07-13T09:23:35;7.43;;;2.92;;
73672;SDS011;61972;19.480;-99.240;2023-07-13T09:28:35;5.40;;;2.50;;
73672;SDS011;61972;19.480;-99.240;2023-07-13T09:31:15;5.90;;;2.43;;
73672;SDS011;61972;19.480;-99.240;2023-07-13T09:33:41;8.32;;;2.80;;
73672;SDS011;61972;19.480;-99.240;2023-07-13T09:36:41;6.35;;;2.50;;
73672;SDS011;61972;19.480;-99.240;2023-07-13T09:39:12;6.25;;;2.70;;
73672;SDS011;61972;19.480;-99.240;2023-07-13T09:44:34;8.13;;;3.00;;
73672;SDS011;61972;19.480;-99.240;2023-07-13T09:47:16;7.32;;;2.83;;
73672;SDS011;61972;19.480;-99.240;2023-07-13T09:49:56;4.65;;;2.80;;
73672;SDS011;61972;19.480;-99.240;2023-07-13T09:52:24;6.93;;;2.83;;
73672;SDS011;61972;19.480;-99.240;2023-07-13T09:54:52;8.00;;;2.80;;
73672;SDS011;61972;19.480;-99.240;2023-07-13T09:57:24;6.50;;;2.90;;
73672;SDS011;61972;19.480;-99.240;2023-07-13T09:59:53;7.93;;;2.72;;
73672;SDS011;61972;19.480;-99.240;2023-07-13T10:02:29;6.80;;;3.15;;
73672;SDS011;61972;19.480;-99.240;2023-07-13T10:05:01;10.25;;;3.38;;
73672;SDS011;61972;19.480;-99.240;2023-07-13T10:07:35;5.57;;;3.28;;
73672;SDS011;61972;19.480;-99.240;2023-07-13T10:10:12;5.47;;;2.83;;
73672;SDS011;61972;19.480;-99.240;2023-07-13T10:12:40;6.03;;;3.05;;
73672;SDS011;61972;19.480;-99.240;2023-07-13T10:15:07;7.00;;;2.70;;
73672;SDS011;61972;19.480;-99.240;2023-07-13T10:17:41;7.43;;;2.85;;
73672;SDS011;61972;19.480;-99.240;2023-07-13T10:20:09;6.72;;;2.85;;
73672;SDS011;61972;19.480;-99.240;2023-07-13T10:25:25;7.90;;;2.80;;
73672;SDS011;61972;19.480;-99.240;2023-07-13T10:28:02;5.25;;;2.92;;
73672;SDS011;61972;19.480;-99.240;2023-07-13T10:30:38;6.40;;;2.80;;
73672;SDS011;61972;19.480;-99.240;2023-07-13T10:33:10;7.03;;;2.80;;
73672;SDS011;61972;19.480;-99.240;2023-07-13T10:35:38;4.87;;;2.50;;
73672;SDS011;61972;19.480;-99.240;2023-07-13T10:38:10;7.95;;;2.90;;
73672;SDS011;61972;19.480;-99.240;2023-07-13T10:40:39;9.48;;;3.00;;
73672;SDS011;61972;19.480;-99.240;2023-07-13T10:43:12;5.55;;;3.00;;
73672;SDS011;61972;19.480;-99.240;2023-07-13T10:45:45;8.10;;;2.78;;
73672;SDS011;61972;19.480;-99.240;2023-07-13T10:48:15;7.77;;;2.77;;
73672;SDS011;61972;19.480;-99.240;2023-07-13T10:50:43;6.72;;;2.95;;
73672;SDS011;61972;19.480;-99.240;2023-07-13T10:55:59;6.85;;;2.72;;
73672;SDS011;61972;19.480;-99.240;2023-07-13T10:58:37;7.47;;;2.90;;
73672;SDS011;61972;19.480;-99.240;2023-07-13T11:03:32;5.72;;;3.10;;
73672;SDS011;61972;19.480;-99.240;2023-07-13T11:06:15;7.65;;;2.63;;
73672;SDS011;61972;19.480;-99.240;2023-07-13T11:08:58;4.55;;;2.72;;
73672;SDS011;61972;19.480;-99.240;2023-07-13T11:14:01;8.10;;;2.80;;
73672;SDS011;61972;19.480;-99.240;2023-07-13T11:16:46;6.80;;;2.78;;
73672;SDS011;61972;19.480;-99.240;2023-07-13T11:27:35;7.67;;;2.90;;
73672;SDS011;61972;19.480;-99.240;2023-07-13T11:32:51;6.88;;;3.00;;
73672;SDS011;61972;19.480;-99.240;2023-07-13T11:35:34;7.30;;;2.90;;
73672;SDS011;61972;19.480;-99.240;2023-07-13T11:38:08;7.35;;;3.03;;
73672;SDS011;61972;19.480;-99.240;2023-07-13T11:40:41;5.67;;;2.80;;
73672;SDS011;61972;19.480;-99.240;2023-07-13T11:43:11;6.38;;;2.63;;
73672;SDS011;61972;19.480;-99.240;2023-07-13T11:45:40;8.23;;;2.83;;
73672;SDS011;61972;19.480;-99.240;2023-07-13T11:48:27;5.25;;;2.72;;
73672;SDS011;61972;19.480;-99.240;2023-07-13T11:50:58;6.38;;;3.20;;
73672;SDS011;61972;19.480;-99.240;2023-07-13T11:53:29;5.97;;;2.97;;
73672;SDS011;61972;19.480;-99.240;2023-07-13T11:55:59;10.05;;;2.80;;
73672;SDS011;61972;19.480;-99.240;2023-07-13T11:58:26;7.18;;;2.90;;
73672;SDS011;61972;19.480;-99.240;2023-07-13T12:00:53;6.18;;;2.83;;
73672;SDS011;61972;19.480;-99.240;2023-07-13T12:03:22;7.88;;;3.00;;
73672;SDS011;61972;19.480;-99.240;2023-07-13T12:08:25;6.13;;;2.80;;
73672;SDS011;61972;19.480;-99.240;2023-07-13T12:11:05;7.93;;;2.88;;
73672;SDS011;61972;19.480;-99.240;2023-07-13T12:13:38;7.20;;;2.67;;
73672;SDS011;61972;19.480;-99.240;2023-07-13T12:16:14;5.78;;;2.63;;
73672;SDS011;61972;19.480;-99.240;2023-07-13T12:21:56;6.10;;;2.50;;
73672;SDS011;61972;19.480;-99.240;2023-07-13T12:24:23;8.88;;;2.72;;
73672;SDS011;61972;19.480;-99.240;2023-07-13T12:26:52;6.97;;;2.45;;
73672;SDS011;61972;19.480;-99.240;2023-07-13T12:29:20;5.43;;;2.75;;
73672;SDS011;61972;19.480;-99.240;2023-07-13T12:31:47;5.20;;;2.63;;
73672;SDS011;61972;19.480;-99.240;2023-07-13T12:34:15;8.95;;;2.92;;
73672;SDS011;61972;19.480;-99.240;2023-07-13T12:36:47;7.43;;;2.90;;
73672;SDS011;61972;19.480;-99.240;2023-07-13T12:44:49;6.97;;;2.87;;
73672;SDS011;61972;19.480;-99.240;2023-07-13T12:47:19;8.05;;;2.63;;
73672;SDS011;61972;19.480;-99.240;2023-07-13T12:49:48;5.22;;;2.53;;
73672;SDS011;61972;19.480;-99.240;2023-07-13T12:52:17;6.70;;;2.50;;
73672;SDS011;61972;19.480;-99.240;2023-07-13T12:54:54;6.68;;;2.70;;
73672;SDS011;61972;19.480;-99.240;2023-07-13T12:57:24;6.20;;;2.60;;
73672;SDS011;61972;19.480;-99.240;2023-07-13T12:59:52;5.53;;;2.70;;
73672;SDS011;61972;19.480;-99.240;2023-07-13T13:02:29;6.75;;;2.63;;
73672;SDS011;61972;19.480;-99.240;2023-07-13T13:04:57;6.80;;;2.75;;
73672;SDS011;61972;19.480;-99.240;2023-07-13T13:07:24;7.10;;;2.70;;
73672;SDS011;61972;19.480;-99.240;2023-07-13T13:09:51;6.97;;;2.80;;
73672;SDS011;61972;19.480;-99.240;2023-07-13T13:12:19;5.20;;;2.47;;
73672;SDS011;61972;19.480;-99.240;2023-07-13T13:14:45;7.45;;;2.78;;
73672;SDS011;61972;19.480;-99.240;2023-07-13T13:17:19;7.55;;;2.78;;
73672;SDS011;61972;19.480;-99.240;2023-07-13T13:19:50;6.30;;;2.63;;
73672;SDS011;61972;19.480;-99.240;2023-07-13T13:22:19;6.90;;;2.20;;
73672;SDS011;61972;19.480;-99.240;2023-07-13T13:24:46;6.40;;;2.40;;
73672;SDS011;61972;19.480;-99.240;2023-07-13T13:27:19;4.85;;;2.42;;
73672;SDS011;61972;19.480;-99.240;2023-07-13T13:29:49;6.82;;;2.38;;
73672;SDS011;61972;19.480;-99.240;2023-07-13T13:32:19;8.75;;;2.60;;
73672;SDS011;61972;19.480;-99.240;2023-07-13T13:34:46;5.57;;;2.30;;
73672;SDS011;61972;19.480;-99.240;2023-07-13T13:37:19;6.20;;;3.10;;
73672;SDS011;61972;19.480;-99.240;2023-07-13T13:39:47;6.25;;;2.20;;
73672;SDS011;61972;19.480;-99.240;2023-07-13T13:42:14;6.57;;;2.63;;
73672;SDS011;61972;19.480;-99.240;2023-07-13T13:44:40;6.57;;;2.50;;
73672;SDS011;61972;19.480;-99.240;2023-07-13T13:47:08;7.07;;;2.50;;
73672;SDS011;61972;19.480;-99.240;2023-07-13T13:49:46;5.68;;;2.53;;
73672;SDS011;61972;19.480;-99.240;2023-07-13T13:52:12;6.90;;;2.78;;
73672;SDS011;61972;19.480;-99.240;2023-07-13T13:54:39;6.60;;;2.53;;
73672;SDS011;61972;19.480;-99.240;2023-07-13T13:57:05;5.15;;;2.38;;
73672;SDS011;61972;19.480;-99.240;2023-07-13T13:59:32;4.13;;;1.90;;
73672;SDS011;61972;19.480;-99.240;2023-07-13T14:02:07;4.97;;;2.60;;
73672;SDS011;61972;19.480;-99.240;2023-07-13T14:04:55;5.38;;;2.25;;
73672;SDS011;61972;19.480;-99.240;2023-07-13T14:07:24;6.60;;;2.13;;
73672;SDS011;61972;19.480;-99.240;2023-07-13T14:09:55;5.05;;;2.40;;
73672;SDS011;61972;19.480;-99.240;2023-07-13T14:12:23;7.73;;;2.70;;
73672;SDS011;61972;19.480;-99.240;2023-07-13T14:14:54;4.75;;;2.55;;
73672;SDS011;61972;19.480;-99.240;2023-07-13T14:17:24;6.75;;;2.50;;
73672;SDS011;61972;19.480;-99.240;2023-07-13T14:19:52;8.25;;;2.45;;
73672;SDS011;61972;19.480;-99.240;2023-07-13T14:22:25;4.65;;;2.05;;
73672;SDS011;61972;19.480;-99.240;2023-07-13T14:24:52;5.47;;;2.03;;
73672;SDS011;61972;19.480;-99.240;2023-07-13T14:27:19;4.55;;;2.40;;
73672;SDS011;61972;19.480;-99.240;2023-07-13T14:29:46;3.92;;;2.17;;
73672;SDS011;61972;19.480;-99.240;2023-07-13T14:32:12;5.60;;;2.30;;
73672;SDS011;61972;19.480;-99.240;2023-07-13T14:34:39;5.00;;;2.30;;
73672;SDS011;61972;19.480;-99.240;2023-07-13T14:37:05;4.63;;;2.43;;
73672;SDS011;61972;19.480;-99.240;2023-07-13T14:39:39;5.20;;;2.60;;
73672;SDS011;61972;19.480;-99.240;2023-07-13T14:42:08;6.25;;;2.90;;
73672;SDS011;61972;19.480;-99.240;2023-07-13T14:44:35;4.55;;;2.28;;
73672;SDS011;61972;19.480;-99.240;2023-07-13T14:47:03;5.75;;;2.60;;
73672;SDS011;61972;19.480;-99.240;2023-07-13T14:49:38;5.57;;;2.53;;
73672;SDS011;61972;19.480;-99.240;2023-07-13T14:52:13;5.18;;;2.42;;
73672;SDS011;61972;19.480;-99.240;2023-07-13T14:54:42;5.55;;;2.88;;
73672;SDS011;61972;19.480;-99.240;2023-07-13T14:57:09;5.80;;;2.63;;
73672;SDS011;61972;19.480;-99.240;2023-07-13T14:59:37;6.03;;;2.50;;
73672;SDS011;61972;19.480;-99.240;2023-07-13T15:02:09;5.40;;;2.50;;
73672;SDS011;61972;19.480;-99.240;2023-07-13T15:04:42;6.43;;;3.20;;
73672;SDS011;61972;19.480;-99.240;2023-07-13T15:07:09;5.82;;;2.50;;
73672;SDS011;61972;19.480;-99.240;2023-07-13T15:09:37;4.85;;;2.53;;
73672;SDS011;61972;19.480;-99.240;2023-07-13T15:12:03;5.70;;;2.85;;
73672;SDS011;61972;19.480;-99.240;2023-07-13T15:14:30;7.23;;;2.87;;
73672;SDS011;61972;19.480;-99.240;2023-07-13T15:16:57;6.38;;;2.72;;
73672;SDS011;61972;19.480;-99.240;2023-07-13T15:19:24;6.90;;;2.63;;
73672;SDS011;61972;19.480;-99.240;2023-07-13T15:21:51;6.30;;;2.90;;